createdAt,value
2017-10-11T00:00:57.850Z,22.85
2017-10-11T00:03:25.505Z,19.75
2017-10-11T00:05:52.979Z,23.08
2017-10-11T00:08:20.433Z,20.50
2017-10-11T00:10:47.886Z,19.67
2017-10-11T00:13:15.337Z,20.40
2017-10-11T00:15:42.799Z,21.02
2017-10-11T00:18:10.247Z,21.52
2017-10-11T00:20:37.695Z,20.10
2017-10-11T00:23:05.146Z,20.15
2017-10-11T00:25:32.606Z,18.33
2017-10-11T00:28:00.053Z,20.73
2017-10-11T00:30:28.266Z,24.95
2017-10-11T00:32:55.726Z,21.30
2017-10-11T00:35:23.182Z,18.37
2017-10-11T00:37:51.405Z,21.90
2017-10-11T00:40:19.621Z,23.87
2017-10-11T00:42:47.078Z,21.37
2017-10-11T00:45:14.526Z,22.17
2017-10-11T00:47:41.987Z,21.70
2017-10-11T00:50:09.455Z,19.10
2017-10-11T00:52:36.912Z,21.10
2017-10-11T00:55:04.358Z,20.17
2017-10-11T00:57:31.817Z,18.67
2017-10-11T00:59:59.381Z,20.00
2017-10-11T01:02:26.837Z,17.73
2017-10-11T01:04:54.288Z,20.92
2017-10-11T01:07:21.744Z,16.80
2017-10-11T01:09:49.191Z,18.73
2017-10-11T01:12:16.643Z,19.33
2017-10-11T01:14:44.093Z,17.37
2017-10-11T01:17:11.550Z,19.55
2017-10-11T01:19:39.023Z,17.30
2017-10-11T01:22:06.461Z,18.80
2017-10-11T01:24:33.914Z,16.73
2017-10-11T01:27:02.142Z,17.50
2017-10-11T01:29:29.604Z,17.12
2017-10-11T01:31:57.053Z,17.90
2017-10-11T01:34:24.524Z,17.20
2017-10-11T01:36:51.975Z,16.98
2017-10-11T01:39:19.429Z,18.17
2017-10-11T01:41:46.889Z,18.85
2017-10-11T01:44:14.347Z,16.80
2017-10-11T01:46:41.805Z,17.73
2017-10-11T01:49:09.270Z,17.05
2017-10-11T01:51:36.734Z,16.52
2017-10-11T01:54:04.200Z,17.80
2017-10-11T01:56:32.422Z,15.00
2017-10-11T01:58:59.876Z,15.05
2017-10-11T02:01:27.324Z,21.20
2017-10-11T02:03:54.785Z,19.20
2017-10-11T02:06:22.252Z,16.83
2017-10-11T02:08:49.803Z,17.17
2017-10-11T02:11:17.542Z,16.83
2017-10-11T02:13:45.500Z,15.25
2017-10-11T02:16:13.358Z,19.62
2017-10-11T02:18:40.864Z,16.02
2017-10-11T02:21:08.349Z,18.15
2017-10-11T02:23:36.112Z,22.23
2017-10-11T02:26:03.663Z,14.68
2017-10-11T02:28:31.106Z,16.45
2017-10-11T02:30:58.568Z,15.00
2017-10-11T02:33:26.025Z,16.20
2017-10-11T02:35:54.246Z,15.90
2017-10-11T02:38:22.474Z,16.90
2017-10-11T02:40:49.940Z,15.60
2017-10-11T02:43:18.794Z,13.95
2017-10-11T02:45:46.503Z,20.08
2017-10-11T02:48:13.967Z,21.67
2017-10-11T02:50:41.423Z,16.20
2017-10-11T02:53:09.027Z,15.63
2017-10-11T02:55:36.661Z,19.80
2017-10-11T02:58:04.250Z,19.35
2017-10-11T03:00:31.960Z,17.70
2017-10-11T03:02:59.989Z,16.90
2017-10-11T03:05:27.494Z,15.60
2017-10-11T03:07:54.978Z,17.37
2017-10-11T03:10:22.431Z,20.73
2017-10-11T03:12:49.887Z,22.23
2017-10-11T03:15:18.114Z,23.60
2017-10-11T03:17:45.603Z,22.30
2017-10-11T03:20:13.084Z,22.50
2017-10-11T03:22:40.548Z,23.02
2017-10-11T03:25:08.042Z,22.62
2017-10-11T03:27:35.521Z,24.60
2017-10-11T03:30:03.014Z,23.05
2017-10-11T03:32:30.479Z,22.92
2017-10-11T03:34:57.935Z,22.85
2017-10-11T03:37:26.037Z,26.87
2017-10-11T03:39:54.175Z,21.62
2017-10-11T03:42:21.736Z,23.65
2017-10-11T03:44:49.266Z,22.67
2017-10-11T03:47:17.673Z,24.27
2017-10-11T03:49:45.268Z,28.27
2017-10-11T03:52:12.894Z,24.33
2017-10-11T03:54:40.555Z,30.05
2017-10-11T03:57:08.048Z,26.42
2017-10-11T03:59:35.555Z,29.35
2017-10-11T04:02:04.003Z,31.87
2017-10-11T04:04:32.477Z,28.17
2017-10-11T04:07:00.484Z,30.88
2017-10-11T04:09:27.959Z,26.80
2017-10-11T04:11:58.166Z,29.12
2017-10-11T04:14:28.251Z,31.87
2017-10-11T04:16:59.331Z,36.78
2017-10-11T04:19:26.994Z,29.45
2017-10-11T04:21:56.957Z,28.98
2017-10-11T04:24:24.650Z,34.55
2017-10-11T04:26:52.387Z,31.92
2017-10-11T04:29:19.954Z,32.40
2017-10-11T04:31:48.619Z,36.25
2017-10-11T04:34:16.239Z,34.15
2017-10-11T04:36:44.711Z,30.58
2017-10-11T04:39:17.474Z,33.80
2017-10-11T04:41:45.099Z,36.75
2017-10-11T04:44:13.432Z,38.90
2017-10-11T04:46:41.867Z,31.60
2017-10-11T04:49:09.342Z,39.42
2017-10-11T04:51:36.843Z,32.95
2017-10-11T04:54:04.299Z,31.30
2017-10-11T04:56:31.750Z,33.95
2017-10-11T04:58:59.213Z,32.80
2017-10-11T05:01:26.669Z,33.50
2017-10-11T05:03:54.143Z,30.02
2017-10-11T05:06:21.676Z,32.83
2017-10-11T05:08:49.177Z,33.05
2017-10-11T05:11:16.684Z,30.58
2017-10-11T05:13:44.284Z,33.45
2017-10-11T05:16:11.754Z,35.38
2017-10-11T05:18:39.254Z,33.03
2017-10-11T05:21:06.768Z,28.87
2017-10-11T05:23:34.253Z,32.92
2017-10-11T05:26:01.753Z,26.40
2017-10-11T05:28:29.294Z,26.15
2017-10-11T05:30:56.850Z,28.45
2017-10-11T05:36:14.807Z,30.17
2017-10-11T05:38:42.304Z,26.30
2017-10-11T05:41:09.776Z,23.85
2017-10-11T05:43:37.250Z,26.02
2017-10-11T05:46:05.211Z,24.80
2017-10-11T05:48:32.816Z,29.20
2017-10-11T05:51:00.426Z,22.67
2017-10-11T05:53:28.005Z,23.42
2017-10-11T05:55:55.531Z,24.05
2017-10-11T05:58:23.244Z,24.83
2017-10-11T06:00:50.712Z,25.67
2017-10-11T06:03:18.172Z,26.08
2017-10-11T06:05:45.626Z,27.35
2017-10-11T06:08:13.799Z,22.90
2017-10-11T06:10:42.062Z,26.25
2017-10-11T06:13:09.534Z,25.02
2017-10-11T06:15:37.052Z,25.95
2017-10-11T06:18:04.543Z,23.30
2017-10-11T06:20:32.073Z,25.60
2017-10-11T06:22:59.516Z,25.23
2017-10-11T06:25:26.986Z,23.65
2017-10-11T06:27:54.447Z,24.23
2017-10-11T06:30:21.912Z,23.20
2017-10-11T06:32:49.362Z,26.52
2017-10-11T06:35:16.821Z,25.15
2017-10-11T06:37:44.308Z,24.70
2017-10-11T06:40:12.554Z,24.70
2017-10-11T06:42:40.774Z,30.05
2017-10-11T06:45:08.240Z,23.65
2017-10-11T06:47:35.716Z,23.83
2017-10-11T06:50:03.174Z,24.33
2017-10-11T06:52:30.642Z,22.75
2017-10-11T06:54:58.106Z,23.25
2017-10-11T06:57:25.564Z,21.80
2017-10-11T06:59:53.030Z,22.98
2017-10-11T07:02:21.257Z,21.35
2017-10-11T07:04:48.742Z,23.75
2017-10-11T07:07:16.219Z,20.65
2017-10-11T07:09:43.722Z,20.00
2017-10-11T07:12:11.190Z,20.25
2017-10-11T07:14:38.642Z,21.00
2017-10-11T07:17:06.098Z,22.10
2017-10-11T07:19:33.545Z,19.35
2017-10-11T07:22:01.022Z,18.40
2017-10-11T07:24:28.491Z,17.52
2017-10-11T07:26:55.943Z,18.90
2017-10-11T07:29:23.401Z,18.05
2017-10-11T07:31:50.857Z,15.20
2017-10-11T07:34:18.337Z,15.63
2017-10-11T07:36:45.794Z,14.65
2017-10-11T07:39:13.245Z,14.18
2017-10-11T07:41:40.706Z,14.32
2017-10-11T07:44:08.162Z,14.55
2017-10-11T07:46:35.633Z,16.37
2017-10-11T07:49:03.094Z,15.10
2017-10-11T07:51:31.310Z,11.95
2017-10-11T07:53:58.786Z,12.82
2017-10-11T07:56:26.245Z,15.13
2017-10-11T07:58:53.711Z,13.10
2017-10-11T08:01:21.167Z,14.87
2017-10-11T08:03:48.630Z,15.07
2017-10-11T08:06:16.110Z,16.20
2017-10-11T08:08:43.578Z,14.60
2017-10-11T08:11:11.809Z,13.65
2017-10-11T08:13:39.274Z,14.57
2017-10-11T08:16:06.738Z,13.00
2017-10-11T08:18:34.203Z,12.35
2017-10-11T08:21:01.654Z,13.23
2017-10-11T08:23:29.104Z,11.68
2017-10-11T08:25:56.563Z,12.13
2017-10-11T08:28:24.042Z,10.82
2017-10-11T08:30:52.301Z,11.30
2017-10-11T08:33:19.762Z,10.07
2017-10-11T08:35:47.998Z,10.10
2017-10-11T08:38:15.460Z,10.48
2017-10-11T08:40:42.913Z,8.88
2017-10-11T08:43:10.357Z,7.93
2017-10-11T08:45:37.843Z,8.35
2017-10-11T08:48:05.290Z,9.68
2017-10-11T08:50:32.733Z,6.95
2017-10-11T08:53:00.185Z,6.72
2017-10-11T08:55:27.653Z,6.70
2017-10-11T08:57:55.104Z,6.37
2017-10-11T09:00:22.610Z,5.87
2017-10-11T09:02:50.084Z,7.93
2017-10-11T09:05:17.542Z,5.50
2017-10-11T09:07:44.997Z,4.10
2017-10-11T09:12:46.251Z,5.28
2017-10-11T09:15:14.504Z,4.30
2017-10-11T09:17:41.973Z,4.47
2017-10-11T09:20:10.222Z,4.07
2017-10-11T09:22:37.696Z,4.35
2017-10-11T09:25:05.154Z,5.03
2017-10-11T09:27:33.419Z,4.90
2017-10-11T09:30:00.898Z,6.47
2017-10-11T09:32:29.125Z,5.43
2017-10-11T09:34:56.590Z,4.22
2017-10-11T09:37:24.085Z,4.62
2017-10-11T09:39:52.328Z,7.55
2017-10-11T09:42:20.597Z,4.87
2017-10-11T09:44:48.050Z,4.57
2017-10-11T09:47:15.535Z,4.93
2017-10-11T09:49:43.010Z,4.18
2017-10-11T09:52:11.237Z,5.35
2017-10-11T09:54:38.729Z,4.78
2017-10-11T09:57:06.969Z,5.05
2017-10-11T09:59:34.439Z,4.47
2017-10-11T10:02:01.921Z,5.72
2017-10-11T10:04:30.182Z,5.03
2017-10-11T10:06:57.671Z,5.95
2017-10-11T10:09:25.134Z,6.35
2017-10-11T10:11:52.689Z,6.18
2017-10-11T10:14:20.913Z,6.37
2017-10-11T10:16:48.399Z,7.35
2017-10-11T10:19:15.856Z,7.43
2017-10-11T10:21:43.334Z,8.23
2017-10-11T10:24:10.858Z,7.55
2017-10-11T10:26:38.337Z,8.30
2017-10-11T10:29:06.577Z,10.82
2017-10-11T10:31:34.065Z,11.25
2017-10-11T10:34:01.559Z,11.80
2017-10-11T10:36:29.070Z,11.98
2017-10-11T10:38:56.559Z,12.68
2017-10-11T10:41:24.117Z,17.37
2017-10-11T10:43:51.618Z,16.67
2017-10-11T10:46:19.092Z,17.35
2017-10-11T10:48:46.639Z,17.60
2017-10-11T10:51:14.113Z,17.58
2017-10-11T10:53:41.674Z,15.95
2017-10-11T10:56:09.161Z,17.00
2017-10-11T10:58:37.414Z,17.60
2017-10-11T11:01:04.891Z,17.33
2017-10-11T11:03:33.158Z,20.40
2017-10-11T11:06:00.627Z,20.10
2017-10-11T11:08:28.095Z,20.30
2017-10-11T11:10:55.655Z,21.33
2017-10-11T11:13:23.335Z,21.05
2017-10-11T11:15:50.813Z,18.20
2017-10-11T11:18:18.290Z,20.83
2017-10-11T11:20:45.767Z,22.00
2017-10-11T11:23:14.630Z,21.27
2017-10-11T11:25:42.113Z,19.23
2017-10-11T11:28:09.570Z,19.25
2017-10-11T11:30:37.021Z,19.83
2017-10-11T11:33:05.283Z,21.62
2017-10-11T11:35:32.767Z,19.60
2017-10-11T11:38:00.239Z,19.33
2017-10-11T11:40:27.697Z,21.87
2017-10-11T11:42:55.164Z,20.25
2017-10-11T11:45:23.019Z,20.15
2017-10-11T11:47:50.540Z,20.45
2017-10-11T11:50:18.011Z,19.85
2017-10-11T11:52:45.499Z,23.15
2017-10-11T11:55:12.951Z,20.02
2017-10-11T11:57:40.403Z,21.90
2017-10-11T12:00:07.955Z,22.17
2017-10-11T12:02:36.228Z,19.90
2017-10-11T12:05:03.699Z,22.13
2017-10-11T12:07:31.150Z,21.02
2017-10-11T12:09:58.627Z,20.85
2017-10-11T12:12:27.784Z,19.37
2017-10-11T12:14:55.568Z,18.65
2017-10-11T12:17:23.842Z,19.35
2017-10-11T12:19:51.320Z,18.95
2017-10-11T12:22:18.830Z,18.05
2017-10-11T12:24:46.292Z,17.50
2017-10-11T12:27:13.762Z,17.60
2017-10-11T12:29:41.234Z,17.30
2017-10-11T12:32:08.695Z,17.75
2017-10-11T12:34:36.143Z,18.20
2017-10-11T12:37:04.406Z,17.95
2017-10-11T12:39:31.915Z,16.17
2017-10-11T12:41:59.361Z,16.75
2017-10-11T12:44:26.850Z,17.45
2017-10-11T12:46:54.325Z,18.25
2017-10-11T12:49:21.795Z,16.55
2017-10-11T12:51:49.255Z,17.90
2017-10-11T12:54:16.790Z,16.95
2017-10-11T12:56:44.452Z,16.98
2017-10-11T12:59:12.715Z,17.77
2017-10-11T13:01:40.256Z,16.62
2017-10-11T13:04:07.764Z,16.25
2017-10-11T13:06:35.643Z,16.05
2017-10-11T13:09:03.201Z,14.20
2017-10-11T13:11:31.431Z,15.15
2017-10-11T13:13:58.943Z,15.82
2017-10-11T13:16:28.067Z,17.35
2017-10-11T13:18:56.026Z,16.77
2017-10-11T13:21:23.543Z,15.50
2017-10-11T13:23:51.122Z,17.85
2017-10-11T13:26:18.874Z,16.00
2017-10-11T13:28:46.830Z,18.10
2017-10-11T13:31:14.606Z,16.62
2017-10-11T13:33:42.343Z,17.70
2017-10-11T13:36:10.007Z,16.55
2017-10-11T13:38:37.691Z,14.80
2017-10-11T13:41:05.154Z,16.77
2017-10-11T13:43:32.617Z,16.75
2017-10-11T13:46:00.074Z,18.37
2017-10-11T13:48:27.562Z,17.23
2017-10-11T13:50:55.062Z,17.67
2017-10-11T13:53:23.319Z,17.48
2017-10-11T13:55:50.803Z,18.77
2017-10-11T13:58:18.273Z,15.90
2017-10-11T14:00:45.727Z,15.88
2017-10-11T14:03:13.205Z,15.18
2017-10-11T14:05:40.659Z,18.12
2017-10-11T14:08:08.116Z,18.08
2017-10-11T14:10:35.650Z,17.17
2017-10-11T14:13:03.914Z,17.20
2017-10-11T14:15:32.190Z,17.87
2017-10-11T14:18:00.795Z,16.67
2017-10-11T14:20:28.765Z,18.15
2017-10-11T14:22:56.299Z,16.67
2017-10-11T14:25:24.885Z,17.20
2017-10-11T14:27:53.651Z,16.58
2017-10-11T14:30:21.139Z,15.52
2017-10-11T14:32:48.886Z,15.43
2017-10-11T14:35:16.399Z,16.70
2017-10-11T14:37:44.334Z,15.40
2017-10-11T14:40:12.312Z,15.27
2017-10-11T14:42:40.049Z,14.82
2017-10-11T14:45:07.706Z,14.65
2017-10-11T14:47:35.436Z,13.38
2017-10-11T14:50:03.065Z,12.48
2017-10-11T14:52:30.601Z,12.13
2017-10-11T14:54:58.148Z,13.40
2017-10-11T14:57:25.602Z,11.85
2017-10-11T14:59:53.099Z,12.90
2017-10-11T15:02:20.559Z,13.30
2017-10-11T15:04:48.015Z,12.57
2017-10-11T15:07:15.499Z,12.18
2017-10-11T15:09:43.030Z,12.15
2017-10-11T15:12:10.558Z,13.50
2017-10-11T15:14:38.817Z,13.65
2017-10-11T15:17:06.283Z,12.37
2017-10-11T15:19:33.771Z,12.65
2017-10-11T15:22:01.284Z,10.48
2017-10-11T15:24:28.789Z,10.65
2017-10-11T15:26:56.342Z,10.07
2017-10-11T15:29:24.589Z,9.65
2017-10-11T15:31:52.073Z,8.95
2017-10-11T15:34:19.634Z,9.10
2017-10-11T15:36:47.091Z,8.07
2017-10-11T15:39:14.548Z,6.97
2017-10-11T15:41:42.006Z,7.43
2017-10-11T15:44:09.459Z,7.82
2017-10-11T15:46:36.917Z,7.95
2017-10-11T15:49:04.362Z,8.18
2017-10-11T15:51:31.838Z,7.57
2017-10-11T15:53:59.301Z,8.10
2017-10-11T15:56:26.785Z,8.23
2017-10-11T15:58:54.285Z,7.37
2017-10-11T16:01:21.780Z,8.40
2017-10-11T16:03:49.239Z,6.97
2017-10-11T16:06:16.695Z,8.23
2017-10-11T16:08:44.163Z,7.15
2017-10-11T16:11:14.861Z,6.93
2017-10-11T16:13:42.322Z,6.70
2017-10-11T16:16:10.532Z,8.35
2017-10-11T16:18:37.987Z,7.30
2017-10-11T16:21:05.453Z,6.97
2017-10-11T16:23:32.963Z,6.80
2017-10-11T16:26:00.519Z,7.18
2017-10-11T16:28:27.983Z,6.00
2017-10-11T16:30:55.442Z,6.78
2017-10-11T16:33:22.886Z,5.62
2017-10-11T16:35:51.374Z,5.80
2017-10-11T16:38:19.610Z,5.78
2017-10-11T16:40:47.102Z,5.93
2017-10-11T16:43:14.624Z,5.37
2017-10-11T16:45:43.001Z,4.68
2017-10-11T16:48:10.494Z,5.93
2017-10-11T16:50:38.055Z,5.12
2017-10-11T16:53:05.521Z,5.65
2017-10-11T16:55:32.968Z,4.78
2017-10-11T16:58:00.422Z,5.43
2017-10-11T17:00:27.889Z,4.80
2017-10-11T17:02:56.174Z,5.07
2017-10-11T17:05:25.822Z,6.03
2017-10-11T17:07:53.323Z,4.25
2017-10-11T17:10:21.585Z,5.40
2017-10-11T17:12:49.070Z,5.60
2017-10-11T17:15:16.754Z,4.90
2017-10-11T17:17:44.291Z,4.68
2017-10-11T17:20:11.748Z,4.57
2017-10-11T17:22:40.010Z,4.95
2017-10-11T17:25:08.218Z,5.37
2017-10-11T17:27:36.463Z,5.75
2017-10-11T17:30:04.118Z,4.60
2017-10-11T17:32:31.578Z,5.40
2017-10-11T17:34:59.051Z,5.53
2017-10-11T17:37:26.534Z,5.87
2017-10-11T17:39:54.089Z,7.05
2017-10-11T17:42:21.542Z,7.57
2017-10-11T17:44:48.998Z,5.35
2017-10-11T17:47:16.578Z,6.47
2017-10-11T17:49:44.361Z,6.82
2017-10-11T17:52:11.827Z,6.37
2017-10-11T17:54:39.285Z,6.97
2017-10-11T17:57:06.762Z,6.53
2017-10-11T17:59:34.295Z,7.07
2017-10-11T18:02:01.824Z,7.25
2017-10-11T18:04:29.324Z,7.03
2017-10-11T18:06:57.559Z,8.25
2017-10-11T18:09:25.031Z,7.75
2017-10-11T18:11:52.594Z,9.18
2017-10-11T18:14:20.251Z,9.98
2017-10-11T18:16:47.762Z,8.32
2017-10-11T18:19:15.430Z,9.02
2017-10-11T18:21:43.262Z,8.50
2017-10-11T18:24:10.955Z,9.25
2017-10-11T18:26:38.494Z,10.32
2017-10-11T18:29:05.962Z,8.90
2017-10-11T18:31:33.580Z,9.45
2017-10-11T18:34:01.155Z,8.60
2017-10-11T18:36:28.602Z,9.80
2017-10-11T18:38:56.081Z,10.10
2017-10-11T18:41:24.330Z,9.25
2017-10-11T18:43:51.866Z,9.60
2017-10-11T18:46:19.349Z,9.32
2017-10-11T18:48:46.822Z,10.60
2017-10-11T18:51:14.389Z,9.77
2017-10-11T18:53:41.955Z,10.07
2017-10-11T18:56:09.485Z,10.40
2017-10-11T18:58:37.144Z,10.90
2017-10-11T19:01:04.620Z,10.68
2017-10-11T19:03:32.895Z,10.85
2017-10-11T19:06:00.370Z,10.95
2017-10-11T19:08:27.826Z,11.20
2017-10-11T19:10:55.282Z,11.77
2017-10-11T19:13:22.822Z,11.23
2017-10-11T19:15:50.302Z,10.88
2017-10-11T19:18:17.827Z,10.23
2017-10-11T19:20:45.310Z,10.65
2017-10-11T19:23:12.829Z,12.20
2017-10-11T19:25:40.315Z,11.70
2017-10-11T19:28:07.797Z,10.63
2017-10-11T19:30:35.251Z,11.75
2017-10-11T19:33:02.706Z,10.85
2017-10-11T19:35:30.165Z,11.60
2017-10-11T19:37:57.703Z,11.70
2017-10-11T19:40:25.232Z,10.30
2017-10-11T19:42:52.723Z,10.65
2017-10-11T19:45:20.334Z,10.57
2017-10-11T19:47:48.160Z,10.88
2017-10-11T19:50:15.812Z,10.85
2017-10-11T19:52:44.558Z,11.05
2017-10-11T19:55:12.173Z,10.90
2017-10-11T19:57:39.731Z,11.55
2017-10-11T20:00:08.976Z,10.30
2017-10-11T20:02:37.835Z,10.90
2017-10-11T20:05:05.536Z,11.50
2017-10-11T20:07:33.118Z,10.27
2017-10-11T20:10:01.607Z,9.57
2017-10-11T20:12:29.453Z,9.00
2017-10-11T20:14:58.352Z,10.15
2017-10-11T20:17:26.157Z,10.38
2017-10-11T20:19:54.047Z,9.18
2017-10-11T20:22:21.616Z,9.05
2017-10-11T20:24:50.008Z,9.80
2017-10-11T20:27:17.565Z,10.10
2017-10-11T20:29:46.154Z,10.23
2017-10-11T20:32:14.050Z,10.75
2017-10-11T20:34:41.562Z,9.25
2017-10-11T20:37:09.054Z,10.18
2017-10-11T20:39:36.606Z,9.05
2017-10-11T20:42:04.550Z,8.93
2017-10-11T20:44:32.046Z,9.85
2017-10-11T20:46:59.516Z,8.65
2017-10-11T20:49:27.061Z,8.07
2017-10-11T20:51:55.413Z,8.23
2017-10-11T20:54:22.894Z,8.05
2017-10-11T20:56:51.367Z,9.70
2017-10-11T20:59:18.936Z,9.43
2017-10-11T21:01:46.514Z,9.05
2017-10-11T21:04:14.040Z,8.88
2017-10-11T21:06:41.719Z,9.10
2017-10-11T21:09:10.237Z,9.68
2017-10-11T21:11:37.923Z,7.87
2017-10-11T21:14:05.468Z,8.95
2017-10-11T21:16:33.025Z,8.10
2017-10-11T21:19:00.534Z,7.60
2017-10-11T21:21:28.007Z,9.05
2017-10-11T21:23:56.262Z,8.57
2017-10-11T21:26:24.518Z,7.65
2017-10-11T21:28:52.010Z,8.48
2017-10-11T21:31:19.476Z,7.82
2017-10-11T21:33:46.965Z,8.63
2017-10-11T21:36:14.562Z,12.85
2017-10-11T21:38:42.035Z,9.23
2017-10-11T21:41:09.547Z,8.93
2017-10-11T21:43:37.016Z,7.40
2017-10-11T21:46:04.579Z,7.97
2017-10-11T21:48:32.123Z,6.65
2017-10-11T21:50:59.627Z,8.55
2017-10-11T21:53:27.089Z,8.07
2017-10-11T21:55:54.545Z,9.48
2017-10-11T21:58:22.002Z,9.85
2017-10-11T22:00:49.456Z,8.52
2017-10-11T22:03:16.933Z,7.97
2017-10-11T22:05:44.438Z,7.93
2017-10-11T22:08:11.910Z,7.87
2017-10-11T22:10:40.161Z,7.80
2017-10-11T22:13:07.644Z,9.30
2017-10-11T22:15:35.107Z,7.32
2017-10-11T22:18:03.385Z,7.12
2017-10-11T22:20:30.919Z,8.40
2017-10-11T22:22:59.540Z,8.32
2017-10-11T22:25:27.001Z,7.90
2017-10-11T22:27:54.459Z,7.95
2017-10-11T22:30:21.928Z,7.12
2017-10-11T22:32:49.418Z,7.53
2017-10-11T22:35:16.912Z,8.48
2017-10-11T22:37:44.379Z,8.23
2017-10-11T22:40:11.847Z,8.65
2017-10-11T22:42:39.384Z,7.70
2017-10-11T22:45:06.854Z,9.68
2017-10-11T22:47:34.317Z,9.35
2017-10-11T22:50:01.778Z,9.95
2017-10-11T22:52:29.214Z,10.05
2017-10-11T22:54:57.446Z,12.45
2017-10-11T22:57:24.935Z,9.13
2017-10-11T22:59:53.179Z,9.68
2017-10-11T23:02:20.686Z,9.73
2017-10-11T23:04:48.141Z,10.23
2017-10-11T23:07:15.614Z,10.88
2017-10-11T23:09:43.061Z,12.10
2017-10-11T23:12:10.515Z,10.63
2017-10-11T23:14:37.970Z,12.05
2017-10-11T23:17:05.440Z,10.40
2017-10-11T23:19:32.889Z,10.05
2017-10-11T23:22:00.332Z,11.43
2017-10-11T23:24:28.637Z,11.25
2017-10-11T23:26:56.447Z,12.65
2017-10-11T23:29:23.934Z,10.25
2017-10-11T23:31:52.164Z,11.93
2017-10-11T23:34:19.624Z,9.90
2017-10-11T23:36:47.087Z,10.23
2017-10-11T23:39:14.545Z,11.98
2017-10-11T23:41:41.991Z,12.82
2017-10-11T23:44:09.435Z,10.95
2017-10-11T23:46:36.885Z,11.75
2017-10-11T23:49:04.352Z,13.20
2017-10-11T23:51:31.807Z,10.18
2017-10-11T23:53:59.262Z,11.80
2017-10-11T23:56:27.016Z,10.30
2017-10-11T23:58:54.468Z,11.93
